CDT,Max TemperatureF,Mean TemperatureF,Min TemperatureF,Max Dew PointF,MeanDew PointF,Min DewpointF,Max Humidity, Mean Humidity, Min Humidity, Max Sea Level PressureIn, Mean Sea Level PressureIn, Min Sea Level PressureIn, Max VisibilityMiles, Mean VisibilityMiles, Min VisibilityMiles, Max Wind SpeedMPH, Mean Wind SpeedMPH, Max Gust SpeedMPH,PrecipitationIn, CloudCover, Events, WindDirDegrees
2013-6-1,64,58,51,61,54,48,100,89,77,29.99,29.74,29.59,10,8,1,24,14,32,0.01,7,,292
2013-6-2,64,56,48,50,46,43,100,71,45,30.10,30.05,29.99,10,10,3,17,11,24,0.00,4,,360
2013-6-3,71,60,48,52,46,45,87,61,38,30.05,29.97,29.87,10,10,10,26,12,32,0.00,0,,156
2013-6-4,60,58,55,61,57,52,100,94,72,30.02,29.96,29.92,10,5,0,22,11,28,0.06,8,Fog-Rain,129
2013-6-5,64,60,55,59,53,48,100,80,56,30.03,29.99,29.95,10,8,0,17,8,22,0.00,5,Fog,323
2013-6-6,66,58,50,55,53,50,100,84,64,30.02,29.98,29.94,10,9,4,16,8,23,0.00,4,,356
2013-6-7,66,57,48,55,51,48,100,78,56,30.05,29.99,29.91,10,9,2,8,5,12,0.00,3,,50
2013-6-8,62,56,51,61,55,48,100,91,72,29.91,29.82,29.70,10,7,2,25,12,34,0.85,5,Rain,136
2013-6-9,66,62,59,64,62,59,100,100,94,29.80,29.68,29.62,10,6,1,21,15,28,0.11,7,Rain,244
2013-6-10,75,68,60,68,63,61,100,92,73,29.90,29.85,29.81,10,7,0,15,8,17,0.00,5,Fog,123
2013-6-11,86,75,64,73,69,64,100,81,55,29.86,29.81,29.75,10,10,9,24,12,28,0.00,0,Rain,122
2013-6-12,78,69,60,73,67,55,100,89,73,29.99,29.81,29.68,10,10,4,29,13,37,0.09,5,,356
2013-6-13,77,67,57,57,54,52,88,63,41,30.11,30.05,29.99,10,10,10,18,11,26,0.00,0,,24
2013-6-14,77,70,64,68,61,57,94,76,61,30.07,29.94,29.80,10,10,3,30,14,39,0.14,2,Rain,145
2013-6-15,77,68,60,70,65,61,100,86,65,29.99,29.90,29.87,10,10,1,24,8,33,0.45,2,Rain,181
2013-6-16,84,74,64,68,56,43,100,61,25,30.00,29.97,29.93,10,10,3,12,5,16,0.00,0,,330
2013-6-17,84,72,60,59,55,50,88,55,32,30.02,29.98,29.94,10,10,10,21,9,28,0.00,0,,307
2013-6-18,78,70,62,61,55,52,78,59,39,30.06,30.02,29.99,10,10,10,13,8,16,0.00,1,,33
2013-6-19,86,73,60,64,60,54,94,61,37,30.04,29.99,29.92,10,10,10,23,10,29,0.00,1,,153
2013-6-20,89,78,66,70,66,63,94,68,46,29.98,29.92,29.85,10,10,9,28,16,37,0.00,3,,159
2013-6-21,91,80,68,73,70,63,89,73,46,29.94,29.85,29.80,10,10,9,28,18,39,0.00,2,,165
2013-6-22,80,73,66,72,66,61,94,81,54,30.03,29.89,29.78,10,9,3,30,14,39,0.30,1,Rain,108
2013-6-23,78,71,64,70,66,61,100,80,61,29.93,29.85,29.72,10,10,2,22,13,28,0.18,1,Rain,212
2013-6-24,77,72,66,70,67,63,100,91,69,29.94,29.85,29.76,10,9,3,30,9,44,0.16,3,Rain,149
2013-6-25,86,77,68,75,71,66,100,84,55,29.81,29.75,29.71,10,9,4,18,7,25,0.00,1,,166
2013-6-26,89,80,71,75,67,57,100,69,35,29.89,29.78,29.68,10,8,4,21,9,29,0.00,1,,290
2013-6-27,86,77,68,68,61,54,88,63,33,29.99,29.93,29.89,10,10,7,18,9,28,0.01,0,Rain,277
2013-6-28,84,73,62,64,55,48,88,54,29,29.96,29.91,29.87,10,10,10,31,15,41,0.00,1,,317
2013-6-29,77,70,62,61,56,52,88,64,44,29.97,29.89,29.85,10,10,5,29,15,38,0.00,2,,354
2013-6-30,77,67,57,55,50,43,94,58,31,30.13,30.07,29.97,10,10,8,18,9,23,0.00,0,,25